sensor_id;sensor_type;location;lat;lon;timestamp;temperature;humidity
33149;DHT22;19506;51.040;3.856;2023-04-25T14:50:05;19.50;99.90
33149;DHT22;19506;51.040;3.856;2023-04-25T14:52:31;19.00;99.90
33149;DHT22;19506;51.040;3.856;2023-04-25T14:54:57;18.80;99.90
33149;DHT22;19506;51.040;3.856;2023-04-25T14:57:22;18.80;99.90
33149;DHT22;19506;51.040;3.856;2023-04-25T14:59:48;18.70;99.90
33149;DHT22;19506;51.040;3.856;2023-04-25T15:02:14;18.70;99.90
33149;DHT22;19506;51.040;3.856;2023-04-25T15:04:39;18.80;99.90
33149;DHT22;19506;51.040;3.856;2023-04-25T15:07:05;18.80;99.90
33149;DHT22;19506;51.040;3.856;2023-04-25T15:09:31;18.80;99.90
33149;DHT22;19506;51.040;3.856;2023-04-25T15:11:57;18.70;99.90
33149;DHT22;19506;51.040;3.856;2023-04-25T15:14:23;18.60;99.90
33149;DHT22;19506;51.040;3.856;2023-04-25T15:16:49;18.50;99.90
33149;DHT22;19506;51.040;3.856;2023-04-25T15:19:15;18.50;99.90
33149;DHT22;19506;51.040;3.856;2023-04-25T15:21:41;18.40;99.90
33149;DHT22;19506;51.040;3.856;2023-04-25T15:24:07;18.40;99.90
33149;DHT22;19506;51.040;3.856;2023-04-25T15:26:33;18.40;99.90
33149;DHT22;19506;51.040;3.856;2023-04-25T15:28:58;18.40;99.90
33149;DHT22;19506;51.040;3.856;2023-04-25T15:31:24;18.50;99.90
33149;DHT22;19506;51.040;3.856;2023-04-25T15:33:49;18.40;99.90
33149;DHT22;19506;51.040;3.856;2023-04-25T15:36:15;18.50;99.90
33149;DHT22;19506;51.040;3.856;2023-04-25T15:38:42;18.50;99.90
33149;DHT22;19506;51.040;3.856;2023-04-25T15:41:08;18.50;99.90
33149;DHT22;19506;51.040;3.856;2023-04-25T15:43:34;18.50;99.90
33149;DHT22;19506;51.040;3.856;2023-04-25T15:46:03;18.50;99.90
33149;DHT22;19506;51.040;3.856;2023-04-25T15:48:30;18.40;99.90
33149;DHT22;19506;51.040;3.856;2023-04-25T15:50:57;18.30;99.90
33149;DHT22;19506;51.040;3.856;2023-04-25T15:53:22;18.30;99.90
33149;DHT22;19506;51.040;3.856;2023-04-25T15:55:48;18.30;99.90
33149;DHT22;19506;51.040;3.856;2023-04-25T15:58:14;18.30;99.90
33149;DHT22;19506;51.040;3.856;2023-04-25T16:00:39;18.30;99.90
33149;DHT22;19506;51.040;3.856;2023-04-25T16:03:05;18.30;99.90
33149;DHT22;19506;51.040;3.856;2023-04-25T16:05:31;18.30;99.90
33149;DHT22;19506;51.040;3.856;2023-04-25T16:07:57;18.20;99.90
33149;DHT22;19506;51.040;3.856;2023-04-25T16:10:23;18.20;99.90
33149;DHT22;19506;51.040;3.856;2023-04-25T16:12:49;18.20;99.90
33149;DHT22;19506;51.040;3.856;2023-04-25T16:15:15;18.20;99.90
33149;DHT22;19506;51.040;3.856;2023-04-25T16:17:41;18.20;99.90
33149;DHT22;19506;51.040;3.856;2023-04-25T16:20:08;18.20;99.90
33149;DHT22;19506;51.040;3.856;2023-04-25T16:22:38;18.20;99.90
33149;DHT22;19506;51.040;3.856;2023-04-25T16:25:05;18.20;99.90
33149;DHT22;19506;51.040;3.856;2023-04-25T16:27:31;18.30;99.90
33149;DHT22;19506;51.040;3.856;2023-04-25T16:29:59;18.50;99.90
33149;DHT22;19506;51.040;3.856;2023-04-25T16:32:25;18.80;99.90
33149;DHT22;19506;51.040;3.856;2023-04-25T16:34:51;19.00;99.90
33149;DHT22;19506;51.040;3.856;2023-04-25T16:37:17;19.30;99.90
33149;DHT22;19506;51.040;3.856;2023-04-25T16:39:42;19.50;99.90
33149;DHT22;19506;51.040;3.856;2023-04-25T16:42:08;19.60;99.90
33149;DHT22;19506;51.040;3.856;2023-04-25T16:44:34;19.70;99.90
33149;DHT22;19506;51.040;3.856;2023-04-25T16:47:00;19.70;99.90
33149;DHT22;19506;51.040;3.856;2023-04-25T16:49:25;19.80;99.90
33149;DHT22;19506;51.040;3.856;2023-04-25T16:51:51;19.80;99.90
33149;DHT22;19506;51.040;3.856;2023-04-25T16:54:17;19.80;99.90
33149;DHT22;19506;51.040;3.856;2023-04-25T16:56:42;19.80;99.90
33149;DHT22;19506;51.040;3.856;2023-04-25T16:59:08;19.90;99.90
33149;DHT22;19506;51.040;3.856;2023-04-25T17:01:34;19.90;99.90
33149;DHT22;19506;51.040;3.856;2023-04-25T17:04:00;20.10;99.90
33149;DHT22;19506;51.040;3.856;2023-04-25T17:06:26;20.30;99.90
33149;DHT22;19506;51.040;3.856;2023-04-25T17:08:51;20.40;99.90
33149;DHT22;19506;51.040;3.856;2023-04-25T17:11:17;20.40;99.90
33149;DHT22;19506;51.040;3.856;2023-04-25T17:13:44;20.50;99.90
33149;DHT22;19506;51.040;3.856;2023-04-25T17:16:10;20.50;99.90
33149;DHT22;19506;51.040;3.856;2023-04-25T17:18:42;20.50;99.90
33149;DHT22;19506;51.040;3.856;2023-04-25T17:21:08;20.40;99.90
33149;DHT22;19506;51.040;3.856;2023-04-25T17:23:34;20.40;99.90
33149;DHT22;19506;51.040;3.856;2023-04-25T17:26:00;20.30;99.90
33149;DHT22;19506;51.040;3.856;2023-04-25T17:28:26;20.30;99.90
33149;DHT22;19506;51.040;3.856;2023-04-25T17:30:52;20.30;99.90
33149;DHT22;19506;51.040;3.856;2023-04-25T17:33:18;20.20;99.90
33149;DHT22;19506;51.040;3.856;2023-04-25T17:35:43;20.20;99.90
33149;DHT22;19506;51.040;3.856;2023-04-25T17:38:09;20.10;99.90
33149;DHT22;19506;51.040;3.856;2023-04-25T17:40:35;20.10;99.90
33149;DHT22;19506;51.040;3.856;2023-04-25T17:43:01;20.00;99.90
33149;DHT22;19506;51.040;3.856;2023-04-25T17:45:26;20.00;99.90
33149;DHT22;19506;51.040;3.856;2023-04-25T17:47:53;20.00;99.90
33149;DHT22;19506;51.040;3.856;2023-04-25T17:50:18;19.90;99.90
33149;DHT22;19506;51.040;3.856;2023-04-25T17:52:45;19.90;99.90
33149;DHT22;19506;51.040;3.856;2023-04-25T17:55:12;19.90;99.90
33149;DHT22;19506;51.040;3.856;2023-04-25T17:57:38;19.80;99.90
33149;DHT22;19506;51.040;3.856;2023-04-25T18:00:04;19.80;99.90
33149;DHT22;19506;51.040;3.856;2023-04-25T18:02:32;19.70;99.90
33149;DHT22;19506;51.040;3.856;2023-04-25T18:05:01;19.70;99.90
33149;DHT22;19506;51.040;3.856;2023-04-25T18:07:36;19.70;99.90
33149;DHT22;19506;51.040;3.856;2023-04-25T18:10:03;19.60;99.90
33149;DHT22;19506;51.040;3.856;2023-04-25T18:12:33;19.60;99.90
33149;DHT22;19506;51.040;3.856;2023-04-25T18:14:59;19.60;99.90
33149;DHT22;19506;51.040;3.856;2023-04-25T18:17:25;19.50;99.90
33149;DHT22;19506;51.040;3.856;2023-04-25T18:19:51;19.50;99.90
33149;DHT22;19506;51.040;3.856;2023-04-25T18:22:16;19.50;99.90
33149;DHT22;19506;51.040;3.856;2023-04-25T18:24:42;19.40;99.90
33149;DHT22;19506;51.040;3.856;2023-04-25T18:27:11;19.40;99.90
33149;DHT22;19506;51.040;3.856;2023-04-25T18:29:37;19.40;99.90
33149;DHT22;19506;51.040;3.856;2023-04-25T18:32:03;19.40;99.90
33149;DHT22;19506;51.040;3.856;2023-04-25T18:34:30;19.40;99.90
33149;DHT22;19506;51.040;3.856;2023-04-25T18:36:55;19.40;99.90
33149;DHT22;19506;51.040;3.856;2023-04-25T18:39:21;19.30;99.90
33149;DHT22;19506;51.040;3.856;2023-04-25T18:41:48;19.30;99.90
33149;DHT22;19506;51.040;3.856;2023-04-25T18:44:14;19.30;99.90
33149;DHT22;19506;51.040;3.856;2023-04-25T18:46:39;19.30;99.90
33149;DHT22;19506;51.040;3.856;2023-04-25T18:49:08;19.20;99.90
33149;DHT22;19506;51.040;3.856;2023-04-25T18:51:34;19.20;99.90
33149;DHT22;19506;51.040;3.856;2023-04-25T18:54:00;19.30;99.90
33149;DHT22;19506;51.040;3.856;2023-04-25T18:56:27;19.20;99.90
